sensor_id;sensor_type;location;lat;lon;timestamp;pressure;altitude;pressure_sealevel;temperature;humidity
50696;BME280;36665;51.786;21.594;2022-11-25T00:04:56;90709.38;;;-1.43;80.56
50696;BME280;36665;51.786;21.594;2022-11-25T00:13:17;90721.70;;;-1.41;80.57
50696;BME280;36665;51.786;21.594;2022-11-25T00:21:39;90724.95;;;-1.41;80.52
50696;BME280;36665;51.786;21.594;2022-11-25T00:30:00;90725.77;;;-1.40;80.51
50696;BME280;36665;51.786;21.594;2022-11-25T00:38:22;90763.33;;;-1.29;80.62
50696;BME280;36665;51.786;21.594;2022-11-25T00:46:44;90758.42;;;-1.31;80.67
50696;BME280;36665;51.786;21.594;2022-11-25T00:55:05;90742.23;;;-1.36;80.76
50696;BME280;36665;51.786;21.594;2022-11-25T01:03:28;90745.84;;;-1.34;80.58
50696;BME280;36665;51.786;21.594;2022-11-25T01:11:50;90735.00;;;-1.38;80.47
50696;BME280;36665;51.786;21.594;2022-11-25T01:20:15;90715.86;;;-1.42;80.50
50696;BME280;36665;51.786;21.594;2022-11-25T01:28:37;90740.27;;;-1.35;80.72
50696;BME280;36665;51.786;21.594;2022-11-25T01:36:59;90770.66;;;-1.28;80.62
50696;BME280;36665;51.786;21.594;2022-11-25T01:53:42;90785.88;;;-1.23;80.54
50696;BME280;36665;51.786;21.594;2022-11-25T02:02:04;90770.65;;;-1.28;80.79
50696;BME280;36665;51.786;21.594;2022-11-25T02:10:28;90787.95;;;-1.23;80.81
50696;BME280;36665;51.786;21.594;2022-11-25T02:18:52;90806.32;;;-1.18;80.63
50696;BME280;36665;51.786;21.594;2022-11-25T02:27:16;90786.34;;;-1.24;80.74
50696;BME280;36665;51.786;21.594;2022-11-25T02:35:41;90801.05;;;-1.19;80.55
50696;BME280;36665;51.786;21.594;2022-11-25T02:44:04;90810.55;;;-1.16;80.51
50696;BME280;36665;51.786;21.594;2022-11-25T02:52:26;90810.44;;;-1.16;80.71
50696;BME280;36665;51.786;21.594;2022-11-25T03:00:48;90845.15;;;-1.07;80.83
50696;BME280;36665;51.786;21.594;2022-11-25T03:09:10;90876.27;;;-1.00;81.01
50696;BME280;36665;51.786;21.594;2022-11-25T03:17:32;90855.98;;;-1.05;80.90
50696;BME280;36665;51.786;21.594;2022-11-25T03:25:54;90854.44;;;-1.05;80.88
50696;BME280;36665;51.786;21.594;2022-11-25T03:34:16;90852.05;;;-1.05;80.81
50696;BME280;36665;51.786;21.594;2022-11-25T03:42:38;90831.61;;;-1.12;80.89
50696;BME280;36665;51.786;21.594;2022-11-25T03:51:00;90831.30;;;-1.12;80.91
50696;BME280;36665;51.786;21.594;2022-11-25T03:59:22;90838.84;;;-1.09;80.96
50696;BME280;36665;51.786;21.594;2022-11-25T04:07:44;90838.31;;;-1.10;80.89
50696;BME280;36665;51.786;21.594;2022-11-25T04:16:20;90844.56;;;-1.08;80.84
50696;BME280;36665;51.786;21.594;2022-11-25T04:24:44;90871.47;;;-1.01;80.81
50696;BME280;36665;51.786;21.594;2022-11-25T04:33:08;90871.15;;;-1.01;80.81
50696;BME280;36665;51.786;21.594;2022-11-25T04:41:30;90865.15;;;-1.03;80.80
50696;BME280;36665;51.786;21.594;2022-11-25T04:49:52;90862.31;;;-1.05;80.85
50696;BME280;36665;51.786;21.594;2022-11-25T04:58:14;90848.29;;;-1.07;80.75
50696;BME280;36665;51.786;21.594;2022-11-25T05:06:56;90870.27;;;-1.02;80.88
50696;BME280;36665;51.786;21.594;2022-11-25T05:15:18;90880.64;;;-0.99;80.79
50696;BME280;36665;51.786;21.594;2022-11-25T05:23:41;90845.34;;;-1.08;80.68
50696;BME280;36665;51.786;21.594;2022-11-25T05:32:04;90843.52;;;-1.09;80.81
50696;BME280;36665;51.786;21.594;2022-11-25T05:40:27;90857.93;;;-1.05;80.83
50696;BME280;36665;51.786;21.594;2022-11-25T05:48:57;90848.65;;;-1.06;80.88
50696;BME280;36665;51.786;21.594;2022-11-25T05:57:19;90846.52;;;-1.08;80.88
50696;BME280;36665;51.786;21.594;2022-11-25T06:05:45;90841.77;;;-1.10;80.97
50696;BME280;36665;51.786;21.594;2022-11-25T06:14:07;90821.95;;;-1.14;81.05
50696;BME280;36665;51.786;21.594;2022-11-25T06:22:29;90834.14;;;-1.10;80.91
50696;BME280;36665;51.786;21.594;2022-11-25T06:30:51;90873.11;;;-1.01;80.96
50696;BME280;36665;51.786;21.594;2022-11-25T06:39:22;90869.86;;;-1.01;80.90
50696;BME280;36665;51.786;21.594;2022-11-25T06:47:44;90896.82;;;-0.95;80.92
50696;BME280;36665;51.786;21.594;2022-11-25T06:56:21;90910.34;;;-0.90;80.90
50696;BME280;36665;51.786;21.594;2022-11-25T07:04:43;90895.83;;;-0.95;80.89
50696;BME280;36665;51.786;21.594;2022-11-25T07:13:05;90901.36;;;-0.93;80.93
50696;BME280;36665;51.786;21.594;2022-11-25T07:21:27;90914.61;;;-0.90;81.01
50696;BME280;36665;51.786;21.594;2022-11-25T07:29:50;90927.84;;;-0.87;80.93
50696;BME280;36665;51.786;21.594;2022-11-25T07:38:33;90956.83;;;-0.78;80.97
50696;BME280;36665;51.786;21.594;2022-11-25T07:46:55;90974.07;;;-0.74;80.88
50696;BME280;36665;51.786;21.594;2022-11-25T07:55:16;90949.44;;;-0.81;80.73
50696;BME280;36665;51.786;21.594;2022-11-25T08:03:40;90924.89;;;-0.88;80.95
50696;BME280;36665;51.786;21.594;2022-11-25T08:12:03;90935.39;;;-0.85;80.89
50696;BME280;36665;51.786;21.594;2022-11-25T08:20:25;90951.98;;;-0.81;80.89
50696;BME280;36665;51.786;21.594;2022-11-25T08:28:48;90951.34;;;-0.81;81.06
50696;BME280;36665;51.786;21.594;2022-11-25T08:37:10;90984.98;;;-0.71;80.89
50696;BME280;36665;51.786;21.594;2022-11-25T08:45:31;91027.62;;;-0.59;80.90
50696;BME280;36665;51.786;21.594;2022-11-25T08:53:54;91066.43;;;-0.48;81.02
50696;BME280;36665;51.786;21.594;2022-11-25T09:02:17;91061.38;;;-0.50;80.91
50696;BME280;36665;51.786;21.594;2022-11-25T09:10:40;91083.50;;;-0.44;81.10
50696;BME280;36665;51.786;21.594;2022-11-25T09:19:01;91121.76;;;-0.35;81.07
50696;BME280;36665;51.786;21.594;2022-11-25T09:27:23;91137.76;;;-0.29;81.09
50696;BME280;36665;51.786;21.594;2022-11-25T09:35:45;91134.06;;;-0.31;80.97
50696;BME280;36665;51.786;21.594;2022-11-25T09:45:12;91135.41;;;-0.31;80.99
50696;BME280;36665;51.786;21.594;2022-11-25T10:02:34;91177.98;;;-0.19;81.21
50696;BME280;36665;51.786;21.594;2022-11-25T10:11:06;91219.58;;;-0.08;81.09
50696;BME280;36665;51.786;21.594;2022-11-25T10:28:32;91271.35;;;0.06;81.00
50696;BME280;36665;51.786;21.594;2022-11-25T10:36:58;91263.02;;;0.05;81.04
50696;BME280;36665;51.786;21.594;2022-11-25T10:45:30;91295.42;;;0.13;81.11
50696;BME280;36665;51.786;21.594;2022-11-25T10:54:18;91301.98;;;0.14;81.11
50696;BME280;36665;51.786;21.594;2022-11-25T11:02:48;91274.95;;;0.06;81.05
50696;BME280;36665;51.786;21.594;2022-11-25T11:11:20;91230.65;;;-0.05;81.01
50696;BME280;36665;51.786;21.594;2022-11-25T11:19:42;91228.75;;;-0.05;80.95
50696;BME280;36665;51.786;21.594;2022-11-25T11:36:59;91246.54;;;-0.02;81.01
50696;BME280;36665;51.786;21.594;2022-11-25T12:03:21;91339.52;;;0.25;81.06
50696;BME280;36665;51.786;21.594;2022-11-25T12:11:51;91383.39;;;0.37;81.16
50696;BME280;36665;51.786;21.594;2022-11-25T12:29:14;91401.64;;;0.42;81.18
50696;BME280;36665;51.786;21.594;2022-11-25T12:46:49;91358.63;;;0.29;80.96
50696;BME280;36665;51.786;21.594;2022-11-25T12:55:13;91312.34;;;0.17;80.85
50696;BME280;36665;51.786;21.594;2022-11-25T13:21:10;91260.41;;;0.03;80.95
50696;BME280;36665;51.786;21.594;2022-11-25T13:29:52;91237.88;;;-0.04;81.09
50696;BME280;36665;51.786;21.594;2022-11-25T13:38:37;91240.63;;;-0.03;80.89
50696;BME280;36665;51.786;21.594;2022-11-25T13:47:29;91250.02;;;-0.00;81.08
50696;BME280;36665;51.786;21.594;2022-11-25T14:05:45;91219.78;;;-0.08;80.83
50696;BME280;36665;51.786;21.594;2022-11-25T14:13:49;91223.41;;;-0.07;80.80
50696;BME280;36665;51.786;21.594;2022-11-25T14:22:41;91230.73;;;-0.06;80.91
50696;BME280;36665;51.786;21.594;2022-11-25T14:31:14;91226.50;;;-0.07;81.03
50696;BME280;36665;51.786;21.594;2022-11-25T14:40:08;91237.21;;;-0.04;80.77
50696;BME280;36665;51.786;21.594;2022-11-25T14:48:33;91230.86;;;-0.06;80.69
50696;BME280;36665;51.786;21.594;2022-11-25T14:56:55;91208.83;;;-0.11;80.77
50696;BME280;36665;51.786;21.594;2022-11-25T15:05:20;91220.20;;;-0.09;80.76
50696;BME280;36665;51.786;21.594;2022-11-25T15:13:44;91239.84;;;-0.04;80.77
50696;BME280;36665;51.786;21.594;2022-11-25T15:22:10;91230.54;;;-0.06;80.89
50696;BME280;36665;51.786;21.594;2022-11-25T15:30:56;91238.03;;;-0.04;80.93
50696;BME280;36665;51.786;21.594;2022-11-25T15:47:43;91244.20;;;-0.03;81.06
50696;BME280;36665;51.786;21.594;2022-11-25T15:56:06;91253.21;;;0.00;80.86
50696;BME280;36665;51.786;21.594;2022-11-25T16:04:30;91264.70;;;0.03;80.98
50696;BME280;36665;51.786;21.594;2022-11-25T16:21:52;91247.88;;;-0.02;81.22
50696;BME280;36665;51.786;21.594;2022-11-25T16:30:17;91256.92;;;0.00;81.05
50696;BME280;36665;51.786;21.594;2022-11-25T16:38:39;91261.06;;;0.02;80.94
50696;BME280;36665;51.786;21.594;2022-11-25T16:47:01;91279.25;;;0.06;80.86
50696;BME280;36665;51.786;21.594;2022-11-25T16:55:23;91294.93;;;0.12;80.96
50696;BME280;36665;51.786;21.594;2022-11-25T17:03:45;91299.80;;;0.12;80.89
50696;BME280;36665;51.786;21.594;2022-11-25T17:12:13;91318.11;;;0.17;81.03
50696;BME280;36665;51.786;21.594;2022-11-25T17:20:37;91327.35;;;0.20;80.99
50696;BME280;36665;51.786;21.594;2022-11-25T17:28:59;91316.67;;;0.17;80.89
50696;BME280;36665;51.786;21.594;2022-11-25T17:37:23;91318.69;;;0.17;80.84
50696;BME280;36665;51.786;21.594;2022-11-25T17:45:47;91341.83;;;0.23;81.05
50696;BME280;36665;51.786;21.594;2022-11-25T17:54:09;91336.96;;;0.21;80.89
50696;BME280;36665;51.786;21.594;2022-11-25T18:02:31;91312.16;;;0.15;80.86
50696;BME280;36665;51.786;21.594;2022-11-25T18:10:53;91305.95;;;0.14;80.88
50696;BME280;36665;51.786;21.594;2022-11-25T18:19:14;91317.39;;;0.17;80.98
50696;BME280;36665;51.786;21.594;2022-11-25T18:27:36;91305.39;;;0.13;80.87
50696;BME280;36665;51.786;21.594;2022-11-25T18:35:58;91260.55;;;0.00;80.82
50696;BME280;36665;51.786;21.594;2022-11-25T18:44:25;91267.07;;;0.03;80.88
50696;BME280;36665;51.786;21.594;2022-11-25T18:52:48;91296.84;;;0.12;80.81
50696;BME280;36665;51.786;21.594;2022-11-25T19:01:11;91293.27;;;0.10;80.91
50696;BME280;36665;51.786;21.594;2022-11-25T19:09:33;91302.38;;;0.12;80.95
50696;BME280;36665;51.786;21.594;2022-11-25T19:18:01;91317.80;;;0.16;80.99
50696;BME280;36665;51.786;21.594;2022-11-25T19:26:35;91305.23;;;0.13;80.96
50696;BME280;36665;51.786;21.594;2022-11-25T19:35:02;91311.33;;;0.15;80.90
50696;BME280;36665;51.786;21.594;2022-11-25T19:43:25;91315.04;;;0.15;80.84
50696;BME280;36665;51.786;21.594;2022-11-25T19:51:47;91303.92;;;0.12;81.01
50696;BME280;36665;51.786;21.594;2022-11-25T20:00:11;91313.86;;;0.15;81.07
50696;BME280;36665;51.786;21.594;2022-11-25T20:08:33;91314.48;;;0.15;80.96
50696;BME280;36665;51.786;21.594;2022-11-25T20:16:55;91287.77;;;0.08;80.88
50696;BME280;36665;51.786;21.594;2022-11-25T20:25:17;91271.41;;;0.04;80.89
50696;BME280;36665;51.786;21.594;2022-11-25T20:33:39;91273.79;;;0.04;80.97
50696;BME280;36665;51.786;21.594;2022-11-25T20:42:00;91265.25;;;0.01;80.85
50696;BME280;36665;51.786;21.594;2022-11-25T20:50:23;91242.02;;;-0.04;80.99
50696;BME280;36665;51.786;21.594;2022-11-25T20:58:45;91255.20;;;-0.02;80.90
50696;BME280;36665;51.786;21.594;2022-11-25T21:07:14;91297.24;;;0.10;81.13
50696;BME280;36665;51.786;21.594;2022-11-25T21:15:36;91319.25;;;0.17;81.17
50696;BME280;36665;51.786;21.594;2022-11-25T21:24:04;91340.58;;;0.22;81.10
50696;BME280;36665;51.786;21.594;2022-11-25T21:32:27;91381.04;;;0.34;80.95
50696;BME280;36665;51.786;21.594;2022-11-25T21:40:52;91400.80;;;0.38;81.08
50696;BME280;36665;51.786;21.594;2022-11-25T21:49:14;91416.15;;;0.42;81.13
50696;BME280;36665;51.786;21.594;2022-11-25T21:57:38;91410.29;;;0.40;81.18
50696;BME280;36665;51.786;21.594;2022-11-25T22:06:00;91381.07;;;0.32;81.15
50696;BME280;36665;51.786;21.594;2022-11-25T22:14:28;91372.17;;;0.29;81.22
50696;BME280;36665;51.786;21.594;2022-11-25T22:22:55;91379.89;;;0.32;81.12
50696;BME280;36665;51.786;21.594;2022-11-25T22:31:18;91347.83;;;0.24;81.18
50696;BME280;36665;51.786;21.594;2022-11-25T22:39:40;91331.42;;;0.19;81.17
50696;BME280;36665;51.786;21.594;2022-11-25T22:48:04;91346.63;;;0.23;81.16
50696;BME280;36665;51.786;21.594;2022-11-25T22:56:29;91336.38;;;0.20;81.17
50696;BME280;36665;51.786;21.594;2022-11-25T23:04:52;91320.84;;;0.15;80.91
50696;BME280;36665;51.786;21.594;2022-11-25T23:13:15;91323.74;;;0.17;81.03
50696;BME280;36665;51.786;21.594;2022-11-25T23:21:38;91327.28;;;0.18;80.94
50696;BME280;36665;51.786;21.594;2022-11-25T23:30:00;91352.02;;;0.24;81.02
50696;BME280;36665;51.786;21.594;2022-11-25T23:38:23;91386.83;;;0.34;81.15
50696;BME280;36665;51.786;21.594;2022-11-25T23:46:46;91398.77;;;0.36;81.33
50696;BME280;36665;51.786;21.594;2022-11-25T23:55:13;91398.42;;;0.37;81.05
